Wittenberg, Germany

7:44 PM CEST on March 31, 2015 (GMT +0200)
WMR 200 Pannigkau | | Change Station
CLOSE
Current Station
Personal Weather Station
Location: Eutzsch, SACHSEN-ANHALT
Elevation: 220 ft
Nearby Weather Stations

Elev 220 ft 51.81 °N, 12.63 °E | Updated 4 minutes ago

Mostly Cloudy
Mostly Cloudy
44.9 °F
Feels Like 37 °F
N
18.0
Wind Variable Wind from WSW
Gusts 28.0 mph

Today
High -- | Low -- °F
--% Chance of Precip.
Yesterday
High -- | Low -- °F
Precip. -- in
6:47 AM 7:40 PM
Waxing Gibbous, 88% visible
Pressure 29.36 in
Visibility 6.2 miles
Clouds Few 1800 ft
Mostly Cloudy 3500 ft
Windchill 37 °F
Dew Point 32 °F
Humidity 61%
Rainfall 0.87 in
Snow Depth Not available.
UV 0.0 out of 12
Pollen Not available.
Air Quality Not available.
Flu Activity Not available.
METAR ETSH 311720Z 27029G52KT 9999 FEW018 BKN035 08/00 Q0994 BLU

More Conditions Fewer Conditions

Pressure 29.36 in
Visibility 6.2 miles
Clouds Few 1800 ft
Mostly Cloudy 3500 ft
Windchill 37 °F
Dew Point 32 °F
Humidity 61%
Rainfall 0.87 in
Snow Depth Not available.
UV 0.0 out of 12
Pollen Not available.
Air Quality Not available.
Flu Activity Not available.
METAR ETSH 311720Z 27029G52KT 9999 FEW018 BKN035 08/00 Q0994 BLU

More Conditions Fewer Conditions

10-Day Weather Forecast

Almanac

Astronomy

Mar. 31, 2015 Rise Set
Actual Time
Civil Twilight
Nautical Twilight
Astronomical Twilight
Moon
Length of Visible Light
Length of Day
Tomorrow will be .
, % of the Moon is Illuminated

Today's Extremes

Country Highs Country Lows

Community

WunderPhotos

Upload Photos

1,809,787 photos uploaded!

WunderBlogs® & News

Nearby

Air Quality

  Air Quality AQ Index Pollutant
Not available.

Snow Depth

Station Depth Elevation

Earthquake Activity

City Distance Mag. Time & Date
Minimum magnitude displayed is 2.5.

Coastal Water Temperatures

Place Temperature

Stations

Nearby Weather Stations

Station Location Temp. Windchill Dew Point Humidity Wind Precip. Elev Updated Type